Time;durP1;ratioP1;P1;durP2;ratioP2;P2;SDS_P1;SDS_P2;PMS_P1;PMS_P2;Temp;Humidity;BMP_temperature;BMP_pressure;BME280_temperature;BME280_humidity;BME280_pressure;Samples;Min_cycle;Max_cycle;Signal;HPM_P1;HPM_P2
2022/08/02 00:01:56;;;;;;;2.20;1.80;;;;;;;22.23;80.48;98308.63;4201415;28;20648;-86
2022/08/02 00:03:59;;;;;;;3.17;2.07;;;;;;;22.19;80.53;98294.84;4205741;28;21251;-86
2022/08/02 00:06:02;;;;;;;2.53;2.03;;;;;;;22.15;80.54;98285.53;4203854;28;20692;-85
2022/08/02 00:08:05;;;;;;;3.20;2.13;;;;;;;22.10;80.94;98282.56;4203961;28;20658;-86
2022/08/02 00:10:09;;;;;;;3.00;1.83;;;;;;;22.07;80.75;98285.56;4204289;28;20622;-86
2022/08/02 00:12:13;;;;;;;2.73;2.00;;;;;;;22.05;80.82;98282.22;4185760;28;20743;-86
2022/08/02 00:14:16;;;;;;;2.30;1.80;;;;;;;22.04;80.42;98291.22;4208645;28;20740;-85
2022/08/02 00:16:20;;;;;;;5.20;1.80;;;;;;;22.02;80.37;98290.53;4207192;28;20658;-86
2022/08/02 00:18:39;;;;;;;2.80;2.10;;;;;;;21.97;80.80;98302.69;4216362;28;21264;-86
2022/08/02 00:20:43;;;;;;;4.63;2.50;;;;;;;21.92;82.07;98294.38;4224470;28;20645;-86
2022/08/02 00:22:46;;;;;;;2.70;2.10;;;;;;;21.85;81.76;98302.22;4204768;28;20645;-86
2022/08/02 00:24:49;;;;;;;3.90;2.03;;;;;;;21.80;81.30;98315.19;4196253;28;20634;-86
2022/08/02 00:26:52;;;;;;;2.57;1.97;;;;;;;21.77;82.00;98314.69;4210685;28;20629;-86
2022/08/02 00:28:55;;;;;;;2.47;2.00;;;;;;;21.78;82.77;98313.69;4194724;28;21046;-86
2022/08/02 00:30:59;;;;;;;3.53;2.30;;;;;;;21.77;82.93;98310.22;4209475;28;20657;-86
2022/08/02 00:33:04;;;;;;;2.70;2.27;;;;;;;21.78;82.52;98319.00;4198133;28;20663;-86
2022/08/02 00:35:08;;;;;;;3.07;2.23;;;;;;;21.77;82.00;98320.00;4212254;28;20626;-86
2022/08/02 00:37:11;;;;;;;2.93;2.00;;;;;;;21.75;81.46;98314.00;4211137;28;21225;-86
2022/08/02 00:39:15;;;;;;;2.60;2.13;;;;;;;21.70;81.50;98319.00;4212897;28;21226;-86
2022/08/02 00:41:47;;;;;;;3.90;2.40;;;;;;;21.62;80.93;98315.53;4209976;28;20645;-86
2022/08/02 00:43:51;;;;;;;3.87;2.10;;;;;;;21.54;81.51;98312.88;4210797;28;20632;-85
2022/08/02 00:45:54;;;;;;;3.40;2.10;;;;;;;21.47;82.20;98317.19;4196016;28;20620;-86
2022/08/02 00:48:08;;;;;;;3.70;2.37;;;;;;;21.37;81.69;98306.72;4195729;28;20718;-86
2022/08/02 00:50:11;;;;;;;2.77;2.47;;;;;;;21.33;82.61;98313.38;4211366;28;20629;-86
2022/08/02 00:52:15;;;;;;;4.53;2.20;;;;;;;21.28;82.75;98318.31;4225471;28;20694;-86
2022/08/02 00:54:18;;;;;;;4.03;2.40;;;;;;;21.26;82.47;98311.53;4220942;28;21008;-85
2022/08/02 00:56:21;;;;;;;4.13;2.50;;;;;;;21.27;82.47;98312.34;4193983;28;20658;-85
2022/08/02 00:58:24;;;;;;;2.83;2.37;;;;;;;21.24;82.18;98310.84;4203291;28;20705;-85
2022/08/02 01:00:27;;;;;;;2.97;2.47;;;;;;;21.20;82.91;98314.00;4192180;28;20728;-86
2022/08/02 01:02:34;;;;;;;3.10;2.50;;;;;;;21.16;83.83;98315.34;4190064;28;21233;-86
2022/08/02 01:04:39;;;;;;;3.50;2.40;;;;;;;21.13;83.39;98319.16;4212003;28;20629;-85
2022/08/02 01:06:43;;;;;;;3.03;2.63;;;;;;;21.13;83.31;98327.09;4193610;28;20659;-85
2022/08/02 01:08:46;;;;;;;6.03;2.80;;;;;;;21.12;84.08;98321.97;4208028;28;20627;-86
2022/08/02 01:10:49;;;;;;;3.80;2.60;;;;;;;21.06;82.49;98317.31;4222785;28;21200;-86
2022/08/02 01:12:52;;;;;;;2.47;2.20;;;;;;;21.02;83.08;98318.66;4212079;28;20642;-86
2022/08/02 01:15:00;;;;;;;3.03;2.03;;;;;;;20.99;84.32;98319.78;4231543;28;21218;-86
2022/08/02 01:17:07;;;;;;;5.80;2.30;;;;;;;20.98;83.39;98320.78;4209966;28;20714;-85
2022/08/02 01:19:26;;;;;;;3.30;2.33;;;;;;;20.97;84.83;98320.94;4194594;28;20649;-85
2022/08/02 01:21:48;;;;;;;2.73;1.90;;;;;;;20.95;83.92;98314.97;4212270;28;21243;-86
2022/08/02 01:23:59;;;;;;;3.20;2.30;;;;;;;20.93;84.24;98324.94;4212749;28;20702;-85
2022/08/02 01:26:27;;;;;;;2.30;1.90;;;;;;;20.86;83.79;98322.06;4211485;28;21076;-86
2022/08/02 01:28:39;;;;;;;3.60;2.27;;;;;;;20.86;84.01;98322.06;4203873;28;21223;-85
2022/08/02 01:30:43;;;;;;;2.63;2.30;;;;;;;20.85;84.53;98330.19;4220958;28;20974;-86
2022/08/02 01:32:51;;;;;;;4.30;2.03;;;;;;;20.87;84.56;98334.34;4210881;28;20642;-85
2022/08/02 01:34:58;;;;;;;3.30;2.10;;;;;;;20.88;85.40;98335.19;4193924;28;20649;-85
2022/08/02 01:37:04;;;;;;;2.73;2.30;;;;;;;20.86;83.96;98340.63;4193454;28;20646;-86
2022/08/02 01:39:10;;;;;;;3.23;2.50;;;;;;;20.82;84.40;98330.53;4207868;28;20644;-86
2022/08/02 01:41:29;;;;;;;2.87;2.47;;;;;;;20.77;84.22;98337.31;4194180;28;21254;-86
2022/08/02 01:43:38;;;;;;;4.00;2.27;;;;;;;20.73;84.89;98336.78;4192063;28;20629;-85
2022/08/02 01:45:42;;;;;;;3.07;2.23;;;;;;;20.71;85.16;98338.78;4223743;28;20641;-85
2022/08/02 01:47:46;;;;;;;2.97;2.30;;;;;;;20.69;84.35;98340.78;4227821;28;20638;-86
2022/08/02 01:49:52;;;;;;;2.70;2.37;;;;;;;20.63;84.48;98341.38;4211553;28;20632;-85
2022/08/02 01:54:19;;;;;;;2.80;2.17;;;;;;;20.56;84.90;98344.84;4221225;28;20712;-86
2022/08/02 01:56:22;;;;;;;3.30;2.47;;;;;;;20.56;84.79;98350.13;4211168;28;21149;-86
2022/08/02 01:58:28;;;;;;;4.77;2.43;;;;;;;20.56;85.00;98335.06;4224248;28;21218;-86
2022/08/02 02:00:35;;;;;;;5.03;2.13;;;;;;;20.57;86.20;98338.56;4211086;28;20643;-85
2022/08/02 02:02:40;;;;;;;3.73;2.20;;;;;;;20.57;85.17;98336.72;4192668;28;20716;-85
2022/08/02 02:04:45;;;;;;;3.97;2.30;;;;;;;20.56;85.72;98335.06;4212835;28;20636;-85
2022/08/02 02:06:49;;;;;;;3.17;2.17;;;;;;;20.53;86.57;98338.00;4224858;27;21316;-86
2022/08/02 02:08:52;;;;;;;5.13;2.53;;;;;;;20.51;85.73;98337.34;4202354;28;21030;-86
2022/08/02 02:10:56;;;;;;;3.50;2.10;;;;;;;20.52;86.24;98348.78;4208191;28;20631;-85
2022/08/02 02:13:20;;;;;;;2.70;2.30;;;;;;;20.52;85.50;98336.38;4212567;28;20995;-85
2022/08/02 02:15:41;;;;;;;3.20;2.00;;;;;;;20.51;86.38;98345.31;4210675;28;20643;-85
2022/08/02 02:17:45;;;;;;;3.60;2.23;;;;;;;20.49;86.53;98344.66;4208869;28;20683;-85
2022/08/02 02:20:11;;;;;;;3.00;2.20;;;;;;;20.49;86.29;98344.66;4209506;28;20716;-85
2022/08/02 02:22:14;;;;;;;3.80;2.70;;;;;;;20.46;85.27;98339.66;4208488;28;20728;-86
2022/08/02 02:24:17;;;;;;;3.50;2.20;;;;;;;20.45;87.47;98339.81;4209185;28;20697;-86
2022/08/02 02:26:20;;;;;;;3.03;2.27;;;;;;;20.44;86.61;98336.31;4207881;28;21201;-85
2022/08/02 02:28:35;;;;;;;3.40;2.10;;;;;;;20.42;85.86;98335.66;4189366;28;20626;-85
2022/08/02 02:30:43;;;;;;;3.17;2.37;;;;;;;20.41;87.36;98331.34;4194194;28;20998;-86
2022/08/02 02:32:48;;;;;;;3.33;2.40;;;;;;;20.39;87.86;98330.69;4192494;28;20629;-85
2022/08/02 02:34:51;;;;;;;2.80;2.20;;;;;;;20.37;87.05;98324.72;4192783;28;20633;-85
2022/08/02 02:36:56;;;;;;;2.87;2.20;;;;;;;20.37;88.38;98324.72;4208127;28;20989;-86
2022/08/02 02:39:02;;;;;;;4.53;2.73;;;;;;;20.34;87.83;98325.03;4206386;28;20731;-86
2022/08/02 02:41:06;;;;;;;3.20;2.20;;;;;;;20.31;87.31;98327.16;4193039;28;20622;-86
2022/08/02 02:43:11;;;;;;;4.27;2.40;;;;;;;20.26;87.58;98326.81;4205523;28;20625;-85
2022/08/02 02:45:14;;;;;;;2.67;2.37;;;;;;;20.23;87.51;98326.31;4194396;28;20627;-85
2022/08/02 02:47:19;;;;;;;3.33;2.20;;;;;;;20.23;87.79;98328.94;4204319;28;20666;-85
2022/08/02 02:49:23;;;;;;;3.50;2.37;;;;;;;20.19;87.95;98338.19;4206774;28;20631;-85
2022/08/02 02:51:26;;;;;;;2.50;2.20;;;;;;;20.18;87.95;98333.91;4209211;28;20645;-85
2022/08/02 02:53:31;;;;;;;3.70;2.40;;;;;;;20.16;87.71;98330.56;4194401;28;20690;-85
2022/08/02 02:55:54;;;;;;;3.70;2.40;;;;;;;20.11;87.76;98332.84;4192335;28;20633;-85
2022/08/02 02:58:05;;;;;;;2.50;2.30;;;;;;;20.05;88.60;98329.00;4210026;28;20706;-85
2022/08/02 03:00:11;;;;;;;3.93;2.10;;;;;;;20.00;87.13;98325.19;4189831;28;20652;-85
2022/08/02 03:02:13;;;;;;;6.07;2.47;;;;;;;19.98;87.10;98319.19;4203139;28;21329;-85
2022/08/02 03:04:19;;;;;;;3.93;2.70;;;;;;;19.96;88.41;98321.19;4213910;28;20683;-86
2022/08/02 03:06:22;;;;;;;3.67;2.90;;;;;;;19.98;88.91;98316.56;4228310;27;20671;-85
2022/08/02 03:08:25;;;;;;;4.57;2.63;;;;;;;19.98;89.12;98316.56;4192206;28;20674;-85
2022/08/02 03:10:28;;;;;;;2.53;2.00;;;;;;;20.01;89.14;98326.84;4192368;28;20689;-85
2022/08/02 03:12:31;;;;;;;3.00;2.50;;;;;;;20.02;89.18;98318.72;4206104;28;20680;-85
2022/08/02 03:14:35;;;;;;;3.30;2.50;;;;;;;20.01;89.10;98314.44;4222775;28;20632;-85
2022/08/02 03:16:46;;;;;;;3.30;2.30;;;;;;;20.02;88.68;98320.56;4207391;28;20636;-86
2022/08/02 03:18:49;;;;;;;3.00;2.70;;;;;;;19.99;88.11;98318.22;4206943;28;20667;-85
2022/08/02 03:20:53;;;;;;;2.77;2.47;;;;;;;19.98;89.27;98305.97;4194182;28;20670;-86
2022/08/02 03:22:56;;;;;;;3.10;2.50;;;;;;;19.96;88.83;98318.53;4199449;28;20642;-86
2022/08/02 03:24:59;;;;;;;2.90;2.47;;;;;;;19.94;88.23;98312.56;4187725;28;21020;-86
2022/08/02 03:27:02;;;;;;;2.40;2.10;;;;;;;19.90;88.89;98311.22;4208078;28;20624;-85
2022/08/02 03:29:05;;;;;;;3.27;2.43;;;;;;;19.88;87.80;98318.50;4208243;28;21306;-85
2022/08/02 03:31:13;;;;;;;4.03;2.30;;;;;;;19.88;87.82;98310.56;4209224;28;20628;-85
2022/08/02 03:33:16;;;;;;;4.93;2.87;;;;;;;19.85;87.57;98309.00;4189745;28;20699;-85
2022/08/02 03:35:20;;;;;;;2.97;2.17;;;;;;;19.85;87.74;98311.66;4206820;28;20674;-86
2022/08/02 03:37:28;;;;;;;4.03;2.17;;;;;;;19.85;88.10;98313.47;4222570;28;20628;-85
2022/08/02 03:39:32;;;;;;;3.40;2.00;;;;;;;19.85;88.42;98313.47;4210298;28;20648;-85
2022/08/02 03:41:37;;;;;;;4.03;2.30;;;;;;;19.88;90.00;98321.16;4193481;28;20645;-85
2022/08/02 03:43:40;;;;;;;4.17;2.20;;;;;;;19.89;89.72;98328.94;4206898;28;20633;-85
2022/08/02 03:45:47;;;;;;;2.70;2.30;;;;;;;19.89;89.61;98323.63;4209458;28;20628;-86
2022/08/02 03:47:50;;;;;;;2.63;2.07;;;;;;;19.89;88.58;98321.00;4220508;28;20635;-85
2022/08/02 03:49:54;;;;;;;2.90;2.23;;;;;;;19.90;89.58;98329.75;4225077;28;20632;-85
2022/08/02 03:51:57;;;;;;;3.27;2.33;;;;;;;19.88;89.62;98331.75;4201880;28;20640;-86
2022/08/02 03:54:02;;;;;;;2.97;2.20;;;;;;;19.84;88.83;98328.53;4210036;28;22076;-85
2022/08/02 03:56:06;;;;;;;4.00;2.57;;;;;;;19.81;87.66;98335.94;4206201;28;20632;-86
2022/08/02 03:58:11;;;;;;;6.10;2.77;;;;;;;19.79;88.77;98334.47;4224353;28;20664;-85
2022/08/02 04:00:19;;;;;;;4.13;2.80;;;;;;;19.75;88.46;98341.03;4193444;28;21201;-85
2022/08/02 04:02:22;;;;;;;3.43;2.43;;;;;;;19.73;87.86;98343.03;4204579;28;20679;-85
2022/08/02 04:04:25;;;;;;;3.30;2.40;;;;;;;19.69;88.48;98339.84;4204093;28;20638;-85
2022/08/02 04:06:28;;;;;;;3.73;2.50;;;;;;;19.63;87.45;98342.28;4190414;28;20716;-85
2022/08/02 04:08:31;;;;;;;4.30;2.37;;;;;;;19.59;88.06;98347.06;4195552;28;20714;-85
2022/08/02 04:13:03;;;;;;;4.00;2.50;;;;;;;19.55;87.69;98350.97;4204418;28;20647;-86
2022/08/02 04:15:07;;;;;;;3.30;2.70;;;;;;;19.56;88.34;98357.94;4189707;28;20637;-85
2022/08/02 04:17:12;;;;;;;3.10;2.27;;;;;;;19.56;88.11;98360.59;4222660;28;20635;-85
2022/08/02 04:19:20;;;;;;;2.90;2.70;;;;;;;19.57;88.56;98370.19;4208719;28;20666;-86
2022/08/02 04:21:25;;;;;;;2.70;2.40;;;;;;;19.57;88.23;98362.25;4208227;28;20673;-85
2022/08/02 04:23:50;;;;;;;3.63;2.70;;;;;;;19.60;88.99;98379.63;4216416;28;20726;-85
2022/08/02 04:25:55;;;;;;;3.20;2.30;;;;;;;19.61;89.56;98370.72;4189676;28;20666;-86
2022/08/02 04:27:59;;;;;;;3.00;2.70;;;;;;;19.63;88.73;98379.34;4186983;28;20622;-85
2022/08/02 04:30:20;;;;;;;3.43;2.80;;;;;;;19.64;88.76;98381.81;4206313;28;20717;-85
2022/08/02 04:32:24;;;;;;;3.13;2.77;;;;;;;19.66;89.58;98387.78;4205873;28;20635;-86
2022/08/02 04:34:27;;;;;;;3.47;2.67;;;;;;;19.68;89.34;98383.19;4191572;28;20623;-85
2022/08/02 04:36:30;;;;;;;3.37;3.07;;;;;;;19.71;89.85;98388.19;4187157;28;20644;-85
2022/08/02 04:38:34;;;;;;;3.60;3.10;;;;;;;19.74;89.26;98387.88;4208368;28;21041;-86
2022/08/02 04:40:37;;;;;;;3.40;2.90;;;;;;;19.75;89.18;98392.16;4194888;28;20638;-85
2022/08/02 04:42:42;;;;;;;3.20;2.60;;;;;;;19.77;88.70;98400.81;4210786;28;20977;-85
2022/08/02 04:44:45;;;;;;;3.50;2.63;;;;;;;19.81;89.91;98398.69;4184618;28;20668;-85
2022/08/02 04:46:48;;;;;;;4.97;2.60;;;;;;;19.85;89.11;98398.22;4190175;28;21237;-85
2022/08/02 04:48:51;;;;;;;3.67;2.60;;;;;;;19.88;88.53;98401.41;4205242;28;20998;-85
2022/08/02 04:50:54;;;;;;;8.50;3.30;;;;;;;19.92;89.73;98399.28;4204685;28;20633;-85
2022/08/02 04:52:57;;;;;;;3.40;2.93;;;;;;;19.94;88.50;98392.03;4205419;28;20662;-85
2022/08/02 04:55:01;;;;;;;3.97;2.67;;;;;;;19.97;88.63;98389.06;4189653;28;21056;-85
2022/08/02 04:57:53;;;;;;;3.70;3.30;;;;;;;19.99;89.45;98382.59;4191402;28;20658;-85
2022/08/02 04:59:29;;;;;;;3.87;3.13;;;;;;;20.03;90.01;98385.81;4193469;28;20651;-85
2022/08/02 05:01:32;;;;;;;3.83;3.30;;;;;;;20.04;88.18;98384.78;4194687;28;20673;-86
2022/08/02 05:03:35;;;;;;;4.10;3.10;;;;;;;20.06;88.78;98380.19;4228217;28;20648;-85
2022/08/02 05:05:38;;;;;;;3.90;3.33;;;;;;;20.10;88.62;98384.16;4195999;28;21226;-85
2022/08/02 05:07:41;;;;;;;3.20;2.90;;;;;;;20.13;88.71;98389.16;4208808;28;20715;-86
2022/08/02 05:09:44;;;;;;;3.80;3.27;;;;;;;20.19;89.44;98383.22;4193329;28;20625;-86
2022/08/02 05:11:48;;;;;;;5.03;3.33;;;;;;;20.24;87.85;98389.72;4214675;28;21042;-85
2022/08/02 05:13:57;;;;;;;4.43;3.27;;;;;;;20.29;89.56;98391.91;4197812;28;20726;-86
2022/08/02 05:16:03;;;;;;;3.87;3.10;;;;;;;20.36;89.06;98386.66;4214066;28;20627;-86
2022/08/02 05:18:06;;;;;;;3.70;3.37;;;;;;;20.46;89.28;98392.69;4227513;28;20673;-86
2022/08/02 05:20:12;;;;;;;5.30;3.30;;;;;;;20.55;90.32;98374.97;4214091;28;21223;-86
2022/08/02 05:22:15;;;;;;;3.87;3.40;;;;;;;20.61;89.98;98374.34;4211152;28;20634;-85
2022/08/02 05:24:18;;;;;;;4.30;3.10;;;;;;;20.65;88.65;98387.13;4197336;28;21202;-85
2022/08/02 05:26:21;;;;;;;3.93;3.17;;;;;;;20.71;88.86;98388.34;4197880;28;20683;-85
2022/08/02 05:28:24;;;;;;;3.87;2.67;;;;;;;20.78;88.70;98386.69;4204923;28;20631;-85
2022/08/02 05:30:28;;;;;;;3.30;3.00;;;;;;;20.87;89.26;98387.41;4224790;28;21222;-85
2022/08/02 05:32:32;;;;;;;4.20;2.93;;;;;;;20.97;87.36;98395.22;4205570;28;21245;-85
2022/08/02 05:34:35;;;;;;;4.50;2.83;;;;;;;21.04;87.93;98394.41;4230752;28;20637;-85
2022/08/02 05:36:38;;;;;;;3.90;3.03;;;;;;;21.11;87.22;98392.78;4211590;28;20613;-85
2022/08/02 05:38:44;;;;;;;5.37;3.00;;;;;;;21.25;86.78;98388.66;4215028;28;20627;-86
2022/08/02 05:40:52;;;;;;;4.07;2.90;;;;;;;21.37;85.50;98390.84;4197073;28;20679;-86
2022/08/02 05:42:57;;;;;;;4.27;3.10;;;;;;;21.48;85.86;98387.88;4208812;28;20635;-85
2022/08/02 05:45:00;;;;;;;4.00;3.20;;;;;;;21.64;85.21;98382.59;4211302;28;20676;-85
2022/08/02 05:47:04;;;;;;;4.27;3.20;;;;;;;21.82;84.78;98381.44;4193776;28;20613;-85
2022/08/02 05:49:09;;;;;;;3.47;3.17;;;;;;;21.87;85.10;98395.03;4229937;28;21208;-85
2022/08/02 05:51:15;;;;;;;5.30;3.37;;;;;;;21.89;84.89;98390.38;4197283;28;20643;-86
2022/08/02 05:53:25;;;;;;;3.50;2.90;;;;;;;21.95;84.56;98400.31;4207758;28;20634;-85
2022/08/02 05:55:34;;;;;;;3.67;3.13;;;;;;;21.97;84.61;98399.16;4196087;28;21518;-86
2022/08/02 05:57:42;;;;;;;3.60;2.93;;;;;;;22.02;84.79;98403.97;4231744;28;20670;-86
2022/08/02 05:59:51;;;;;;;3.20;2.90;;;;;;;22.07;84.51;98401.66;4208541;28;20660;-86
2022/08/02 06:01:57;;;;;;;2.97;2.67;;;;;;;22.13;83.97;98401.81;4192911;28;21156;-86
2022/08/02 06:04:03;;;;;;;3.57;3.27;;;;;;;22.17;83.58;98405.78;4209589;28;20638;-87
2022/08/02 06:06:12;;;;;;;3.90;3.03;;;;;;;22.20;83.85;98399.31;4224485;28;20639;-85
2022/08/02 06:08:15;;;;;;;4.80;3.20;;;;;;;22.31;84.14;98405.97;4209877;28;20636;-86
2022/08/02 06:10:21;;;;;;;3.40;2.93;;;;;;;22.45;83.26;98417.75;4197627;28;20627;-87
2022/08/02 06:12:25;;;;;;;5.13;3.33;;;;;;;22.49;82.63;98414.56;4210520;28;20626;-86
2022/08/02 06:14:31;;;;;;;3.90;3.30;;;;;;;22.57;83.04;98422.53;4191098;28;20636;-87
2022/08/02 06:16:35;;;;;;;4.57;3.50;;;;;;;22.81;81.93;98419.78;4210288;28;20655;-87
2022/08/02 06:18:44;;;;;;;4.00;3.57;;;;;;;23.19;80.69;98415.28;4212259;28;20669;-88
2022/08/02 06:20:50;;;;;;;5.10;3.20;;;;;;;23.55;80.20;98415.56;4210683;28;20645;-85
2022/08/02 06:22:55;;;;;;;4.27;3.27;;;;;;;23.92;79.86;98425.31;4218082;28;20641;-84
2022/08/02 06:24:58;;;;;;;3.47;3.17;;;;;;;24.17;77.53;98419.56;4193623;28;21195;-84
2022/08/02 06:27:02;;;;;;;4.50;3.17;;;;;;;24.53;78.31;98425.09;4210109;28;21275;-84
2022/08/02 06:29:05;;;;;;;4.53;3.57;;;;;;;24.85;77.16;98422.88;4194580;28;20707;-84
2022/08/02 06:31:09;;;;;;;3.83;3.23;;;;;;;25.10;75.92;98422.41;4193623;28;20636;-84
2022/08/02 06:33:13;;;;;;;3.67;3.20;;;;;;;25.33;74.99;98415.09;4204256;28;20634;-84
2022/08/02 06:35:16;;;;;;;3.67;3.37;;;;;;;25.51;73.85;98413.63;4213225;28;21263;-84
2022/08/02 06:37:27;;;;;;;5.10;3.40;;;;;;;25.67;73.18;98424.13;4222553;27;21221;-84
2022/08/02 06:39:36;;;;;;;3.70;3.40;;;;;;;25.85;72.83;98421.84;4209485;28;20634;-84
2022/08/02 06:41:41;;;;;;;4.37;3.80;;;;;;;26.01;72.27;98418.88;4194335;28;20629;-84
2022/08/02 06:44:05;;;;;;;8.43;3.63;;;;;;;26.34;72.41;98418.16;4208529;28;20634;-85
2022/08/02 06:46:28;;;;;;;6.03;3.93;;;;;;;26.56;70.11;98418.72;4211405;28;20726;-84
2022/08/02 06:48:51;;;;;;;9.80;3.50;;;;;;;26.75;71.25;98422.56;4222866;28;20630;-84
2022/08/02 06:50:54;;;;;;;5.40;3.90;;;;;;;26.89;69.81;98418.97;4221757;28;21045;-84
2022/08/02 06:52:58;;;;;;;4.50;4.10;;;;;;;26.90;69.16;98420.59;4211483;28;20721;-84
2022/08/02 06:55:04;;;;;;;4.43;4.00;;;;;;;26.93;68.80;98420.22;4220089;28;24448;-84
2022/08/02 06:57:08;;;;;;;5.80;4.47;;;;;;;27.00;69.04;98429.13;4192265;28;20663;-84
2022/08/02 06:59:11;;;;;;;5.20;4.43;;;;;;;27.12;69.00;98434.56;4227891;28;20683;-84
2022/08/02 07:01:14;;;;;;;8.23;4.53;;;;;;;27.24;68.90;98424.91;4217380;28;20750;-84
2022/08/02 07:03:17;;;;;;;5.10;3.83;;;;;;;27.36;68.66;98425.16;4207914;28;21323;-83
2022/08/02 07:05:21;;;;;;;4.80;3.50;;;;;;;27.49;67.72;98414.47;4208149;28;20626;-83
2022/08/02 07:07:24;;;;;;;7.47;4.80;;;;;;;27.60;68.63;98414.72;4205767;28;20660;-84
2022/08/02 07:09:27;;;;;;;4.77;4.30;;;;;;;27.74;67.14;98417.25;4221738;28;20645;-84
2022/08/02 07:11:34;;;;;;;5.77;4.30;;;;;;;27.93;67.19;98421.00;4208681;28;20616;-84
2022/08/02 07:13:37;;;;;;;6.77;4.70;;;;;;;28.01;66.41;98416.25;4203066;28;20635;-85
2022/08/02 07:15:42;;;;;;;4.80;4.00;;;;;;;28.16;67.88;98428.47;4200688;28;20609;-84
2022/08/02 07:17:51;;;;;;;4.20;3.77;;;;;;;28.34;66.23;98430.53;4211043;28;21029;-84
2022/08/02 07:19:54;;;;;;;7.20;4.47;;;;;;;28.28;65.15;98421.47;4209563;28;20648;-83
2022/08/02 07:21:57;;;;;;;5.13;4.27;;;;;;;28.24;65.57;98414.84;4194239;28;21084;-84
2022/08/02 07:24:04;;;;;;;4.57;4.10;;;;;;;28.36;64.01;98423.91;4205649;28;20699;-84
2022/08/02 07:26:07;;;;;;;5.60;4.80;;;;;;;28.61;64.43;98422.22;4212394;28;20633;-83
2022/08/02 07:28:14;;;;;;;6.50;4.80;;;;;;;28.76;64.77;98420.16;4227450;28;21075;-83
2022/08/02 07:30:26;;;;;;;4.70;4.20;;;;;;;28.89;64.65;98420.97;4205101;28;20721;-83
2022/08/02 07:32:31;;;;;;;6.73;5.23;;;;;;;28.93;63.68;98430.25;4219574;28;20652;-84
2022/08/02 07:34:34;;;;;;;6.20;4.63;;;;;;;28.95;63.74;98424.69;4207350;28;20722;-84
2022/08/02 07:36:38;;;;;;;5.40;4.47;;;;;;;29.09;63.46;98422.56;4218138;28;20666;-84
2022/08/02 07:38:42;;;;;;;6.83;4.80;;;;;;;29.17;63.38;98419.63;4207642;28;20649;-84
2022/08/02 07:40:47;;;;;;;5.50;5.00;;;;;;;29.39;62.91;98426.38;4193736;28;20647;-84
2022/08/02 07:42:52;;;;;;;6.33;4.40;;;;;;;29.46;62.64;98429.88;4206615;28;20625;-84
2022/08/02 07:45:03;;;;;;;5.50;4.17;;;;;;;29.66;62.45;98435.97;4201224;28;20632;-84
2022/08/02 07:47:06;;;;;;;5.23;4.60;;;;;;;29.81;62.40;98434.66;4201610;28;20756;-83
2022/08/02 07:49:12;;;;;;;6.00;5.50;;;;;;;29.95;61.30;98430.88;4188465;28;20631;-82
2022/08/02 07:51:15;;;;;;;6.50;5.00;;;;;;;29.98;60.79;98438.50;4204371;28;20691;-85
2022/08/02 07:53:19;;;;;;;6.70;5.67;;;;;;;29.94;60.52;98433.78;4193421;28;20643;-84
2022/08/02 07:55:42;;;;;;;6.13;5.50;;;;;;;29.89;60.48;98429.03;4223920;28;20634;-83
2022/08/02 07:57:47;;;;;;;6.83;6.20;;;;;;;29.94;60.88;98428.38;4203821;28;21268;-83
2022/08/02 07:59:50;;;;;;;5.97;5.37;;;;;;;30.05;60.84;98433.88;4203719;28;20996;-83
2022/08/02 08:01:55;;;;;;;6.20;5.60;;;;;;;30.12;60.80;98423.91;4189319;28;20653;-83
2022/08/02 08:03:58;;;;;;;6.20;5.70;;;;;;;30.25;60.41;98430.00;4218873;28;20640;-83
2022/08/02 08:06:01;;;;;;;7.73;6.63;;;;;;;30.33;59.47;98435.13;4204225;28;20642;-83
2022/08/02 08:08:05;;;;;;;6.33;5.63;;;;;;;30.35;59.83;98432.22;4194935;28;21082;-83
2022/08/02 08:10:09;;;;;;;6.97;6.20;;;;;;;30.36;59.87;98437.41;4193504;28;21258;-83
2022/08/02 08:12:15;;;;;;;6.60;6.00;;;;;;;30.38;58.76;98424.53;4208614;28;20995;-84
2022/08/02 08:14:18;;;;;;;6.60;6.00;;;;;;;30.45;59.94;98425.31;4217987;28;20732;-83
2022/08/02 08:16:21;;;;;;;6.60;5.87;;;;;;;30.65;59.62;98423.25;4203977;28;20634;-83
2022/08/02 08:18:26;;;;;;;6.47;5.87;;;;;;;30.80;58.83;98418.31;4189941;28;20748;-83
2022/08/02 08:20:29;;;;;;;6.73;5.97;;;;;;;30.81;57.55;98418.09;4189985;28;20627;-83
2022/08/02 08:22:32;;;;;;;5.83;4.90;;;;;;;30.84;59.23;98409.56;4200847;28;21258;-83
2022/08/02 08:24:35;;;;;;;6.20;5.60;;;;;;;30.93;58.53;98410.97;4208222;28;20630;-83
2022/08/02 08:26:40;;;;;;;9.17;7.03;;;;;;;30.92;58.45;98410.09;4190346;28;20627;-83
2022/08/02 08:28:43;;;;;;;6.57;5.90;;;;;;;30.92;58.77;98417.38;4197018;28;20741;-83
2022/08/02 08:30:47;;;;;;;6.00;5.40;;;;;;;30.93;58.37;98410.97;4191853;28;20624;-83
2022/08/02 08:32:50;;;;;;;6.20;5.60;;;;;;;30.96;58.19;98426.69;4193388;28;20627;-82
2022/08/02 08:34:54;;;;;;;6.23;5.50;;;;;;;31.05;58.18;98415.38;4190627;28;20674;-83
2022/08/02 08:36:58;;;;;;;6.13;5.53;;;;;;;31.10;58.07;98420.91;4208319;28;20774;-84
2022/08/02 08:39:01;;;;;;;6.27;5.67;;;;;;;31.17;57.70;98429.75;4191337;28;20627;-83
2022/08/02 08:41:05;;;;;;;6.63;6.03;;;;;;;31.20;57.20;98431.16;4206976;28;20675;-83
2022/08/02 08:43:12;;;;;;;6.20;5.70;;;;;;;31.25;58.18;98421.34;4210660;28;20626;-83
2022/08/02 08:45:16;;;;;;;6.10;5.53;;;;;;;31.28;57.50;98418.19;4226190;27;20643;-83
2022/08/02 08:47:21;;;;;;;6.33;5.23;;;;;;;31.37;57.85;98416.03;4209195;28;21023;-83
2022/08/02 08:49:27;;;;;;;5.97;5.30;;;;;;;31.45;58.18;98413.84;4210757;28;20631;-83
2022/08/02 08:51:37;;;;;;;7.23;6.03;;;;;;;31.49;57.47;98412.34;4209349;28;20630;-83
2022/08/02 08:53:43;;;;;;;6.20;5.60;;;;;;;31.48;57.21;98408.84;4226767;27;20993;-83
2022/08/02 08:55:47;;;;;;;7.53;5.60;;;;;;;31.55;58.11;98404.16;4220745;28;21212;-83
2022/08/02 08:57:51;;;;;;;6.53;5.30;;;;;;;31.62;57.10;98404.91;4207461;28;20651;-83
2022/08/02 08:59:54;;;;;;;5.53;5.03;;;;;;;31.71;58.04;98400.84;4208468;28;20641;-84
2022/08/02 09:01:57;;;;;;;5.83;5.33;;;;;;;31.85;56.67;98406.88;4212211;28;21255;-84
2022/08/02 09:04:19;;;;;;;7.53;5.40;;;;;;;31.85;56.36;98413.06;4193223;28;20627;-84
2022/08/02 09:06:22;;;;;;;6.50;5.90;;;;;;;31.91;56.54;98409.47;4193143;28;20652;-84
2022/08/02 09:08:27;;;;;;;5.73;4.73;;;;;;;32.00;57.63;98410.81;4212262;28;20628;-83
2022/08/02 09:10:36;;;;;;;5.63;5.13;;;;;;;31.92;55.12;98398.47;4208191;28;20631;-84
2022/08/02 09:12:39;;;;;;;6.37;5.40;;;;;;;31.91;56.29;98402.16;4190580;28;20627;-83
2022/08/02 09:14:45;;;;;;;6.73;5.70;;;;;;;31.84;55.67;98408.72;4194926;28;20657;-85
2022/08/02 09:16:52;;;;;;;6.33;5.77;;;;;;;31.60;55.65;98400.78;4193414;28;20626;-85
2022/08/02 09:18:55;;;;;;;6.13;5.40;;;;;;;31.38;56.17;98399.59;4188191;28;20631;-85
2022/08/02 09:21:01;;;;;;;7.17;5.70;;;;;;;31.44;56.78;98398.72;4205043;28;22798;-85
2022/08/02 09:23:08;;;;;;;7.10;6.50;;;;;;;31.47;57.08;98401.78;4211049;28;20676;-85
2022/08/02 09:25:16;;;;;;;6.07;5.47;;;;;;;31.45;56.04;98395.81;4202731;28;20627;-86
2022/08/02 09:27:21;;;;;;;7.30;6.60;;;;;;;31.44;56.06;98390.63;4191486;28;21169;-85
2022/08/02 09:29:25;;;;;;;6.77;6.17;;;;;;;31.42;56.57;98390.03;4208625;28;20718;-86
2022/08/02 09:31:28;;;;;;;6.27;5.73;;;;;;;31.53;56.95;98392.78;4192698;28;20631;-86
2022/08/02 09:33:31;;;;;;;6.20;5.60;;;;;;;31.71;56.98;98386.50;4192631;28;20688;-86
2022/08/02 09:35:36;;;;;;;6.53;5.93;;;;;;;31.80;57.16;98387.81;4212719;28;20670;-83
2022/08/02 09:38:08;;;;;;;6.73;5.70;;;;;;;31.92;56.42;98390.34;4194208;28;20692;-81
2022/08/02 09:40:12;;;;;;;5.77;5.27;;;;;;;31.98;57.16;98385.88;4193624;28;21066;-82
2022/08/02 09:42:16;;;;;;;6.50;5.43;;;;;;;32.15;56.18;98381.47;4221261;28;20689;-82
2022/08/02 09:44:19;;;;;;;10.23;8.97;;;;;;;32.23;56.95;98390.03;4217269;27;20654;-83
2022/08/02 09:46:24;;;;;;;6.33;5.73;;;;;;;32.34;55.71;98386.56;4206871;28;20632;-82
2022/08/02 09:48:27;;;;;;;6.53;5.93;;;;;;;32.39;55.02;98386.66;4217117;27;21220;-82
2022/08/02 09:50:31;;;;;;;7.37;6.67;;;;;;;32.39;55.62;98383.97;4222891;27;20634;-82
2022/08/02 09:52:34;;;;;;;6.20;5.60;;;;;;;32.36;54.58;98385.25;4206484;28;20686;-82
2022/08/02 09:54:45;;;;;;;5.63;5.13;;;;;;;32.34;55.02;98381.16;4202987;28;21188;-82
2022/08/02 09:56:50;;;;;;;6.20;5.57;;;;;;;32.37;55.20;98380.66;4207124;28;20644;-82
2022/08/02 09:58:55;;;;;;;6.50;5.90;;;;;;;32.41;56.10;98382.66;4187949;28;20660;-82